METAR Data
IDs: Format: Raw Decoded Include TAF

Data at: 2229 UTC 01 Dec 2021

METAR for:KMRT (Marysville/Union Cnt, OH, US)
Text:KMRT 012215Z AUTO 18008KT 7SM BKN031 OVC070 06/05 A2988 RMK AO2 T00550047 P0002
Temperature: 5.5°C ( 42°F)
Dewpoint: 4.7°C ( 40°F) [RH = 95%]
Pressure (altimeter):29.88 inches Hg (1011.9 mb)
Winds:from the S (180 degrees) at 9 MPH (8 knots; 4.1 m/s)
Visibility: 7 sm ( 11 km)
Ceiling:3100 feet AGL
Clouds: broken clouds at 3100 feet AGL, overcast cloud deck at 7000 feet AGL
QC Flag:automated observation with no human augmentation